Stations météo

réclame
Mon MeteoGroup
Reinosa, Espagne (8032): Température de l'air & dewpoint: 05.08.2020 05:00:00 - 11.08.2020 05:00:00 (CEST)Reinosa, Espagne (8032): Vitesse du vent & gusts: 05.08.2020 05:00:00 - 11.08.2020 05:00:00 (CEST)Reinosa, Espagne (8032): Direction du vent: 05.08.2020 05:00:00 - 11.08.2020 05:00:00 (CEST)Reinosa, Espagne (8032): Quantités de précipitations: 05.08.2020 05:00:00 - 11.08.2020 05:00:00 (CEST)
Date & Time tt [°C] td [°C] ff [km/h] ff [knt] fx [km/h] fx [knt] dd rr [mm]
11.08.2020 05:00:00 - - - - - - - -
11.08.2020 04:00:00 - - - - - - - -
11.08.2020 03:00:00 - - - - - - - -
11.08.2020 02:00:00 - - - - - - - -
11.08.2020 01:00:00 - - - - - - - -
11.08.2020 00:00:00 - - - - - - - -
10.08.2020 23:00:00 - - - - - - - -
10.08.2020 22:00:00 - - - - - - - -
10.08.2020 21:00:00 - - - - - - - -
10.08.2020 20:00:00 - - - - - - - -
10.08.2020 19:00:00 - - - - - - - -
10.08.2020 18:00:00 - - - - - - - -
10.08.2020 17:00:00 - - - - - - - -
10.08.2020 16:00:00 - - - - - - - -
10.08.2020 15:00:00 - - - - - - - -
10.08.2020 14:00:00 - - - - - - - -
10.08.2020 13:00:00 - - - - - - - -
10.08.2020 12:00:00 - - - - - - - -
10.08.2020 11:00:00 - - - - - - - -
10.08.2020 10:00:00 - - - - - - - -
10.08.2020 09:00:00 - - - - - - - -
10.08.2020 08:00:00 - - - - - - - -
10.08.2020 07:00:00 13,3 12,3 1 0 5 3 W 0,0
10.08.2020 06:00:00 14,6 13,7 1 1 6 4 SSW 0,0
10.08.2020 05:00:00 15,2 14,0 3 2 7 4 WNW 0,0
10.08.2020 04:00:00 15,9 14,6 1 0 8 5 S 0,0
10.08.2020 03:00:00 16,2 14,9 3 2 11 6 W 0,0
10.08.2020 02:00:00 16,5 15,3 6 3 19 10 WSW -
10.08.2020 01:00:00 16,5 15,3 13 7 23 12 E 0,0
10.08.2020 00:00:00 16,7 15,7 2 1 7 4 ENE 0,0
09.08.2020 23:00:00 17,0 15,9 3 2 8 4 WNW 0,0
09.08.2020 22:00:00 17,2 15,9 3 1 13 7 SSW 0,0
09.08.2020 21:00:00 17,7 16,4 11 6 16 9 E 0,0
09.08.2020 20:00:00 18,7 17,1 4 2 22 12 SE -
09.08.2020 19:00:00 21,1 17,3 14 7 27 14 E 0,0
09.08.2020 18:00:00 23,8 17,5 18 10 26 14 E 0,0
09.08.2020 17:00:00 28,3 18,1 14 7 24 13 E 0,0
09.08.2020 16:00:00 30,0 14,9 10 6 26 14 ESE 0,0
09.08.2020 15:00:00 30,7 11,7 12 7 30 16 WSW 0,0
09.08.2020 14:00:00 30,2 12,1 9 5 20 11 S -
09.08.2020 13:00:00 28,7 11,7 8 4 20 11 SSE 0,0
09.08.2020 12:00:00 26,3 14,7 6 4 13 7 E 0,0
09.08.2020 11:00:00 23,9 14,0 3 1 6 4 NNE 0,0
09.08.2020 10:00:00 20,5 15,1 1 1 10 6 SE 0,0
09.08.2020 09:00:00 16,7 13,9 3 2 9 5 W 0,0
09.08.2020 08:00:00 14,6 13,4 3 2 7 4 SW -
09.08.2020 07:00:00 14,1 12,6 3 2 9 5 WSW 0,0
09.08.2020 06:00:00 15,0 12,5 2 1 10 6 SW 0,0
09.08.2020 05:00:00 15,3 13,4 3 1 9 5 WSW 0,0
09.08.2020 04:00:00 16,5 13,8 7 4 15 8 WSW 0,0
09.08.2020 03:00:00 16,7 14,3 9 5 20 11 WSW 0,0
09.08.2020 02:00:00 16,4 14,7 8 5 14 8 W -
09.08.2020 01:00:00 17,3 14,9 2 1 12 7 SE 0,0
09.08.2020 00:00:00 17,7 15,9 6 3 23 12 S 3,3
08.08.2020 23:00:00 17,8 15,4 5 3 22 12 S 0,4
08.08.2020 22:00:00 18,4 14,3 8 4 36 20 SSW 2,4
08.08.2020 21:00:00 18,2 15,3 25 14 100 54 SSE 12,5
08.08.2020 20:00:00 21,1 19,1 3 1 68 37 NE -
08.08.2020 19:00:00 25,1 18,3 7 4 21 12 ENE 0,0
08.08.2020 18:00:00 26,0 16,0 16 9 23 12 E 0,0
08.08.2020 17:00:00 28,0 15,3 16 9 29 16 ENE 0,0
08.08.2020 16:00:00 29,4 14,4 16 9 26 14 ENE 0,0
08.08.2020 15:00:00 29,8 13,6 13 7 23 12 ENE 0,0
08.08.2020 14:00:00 29,4 12,7 11 6 22 12 ENE -
08.08.2020 13:00:00 28,5 12,4 10 5 19 11 E 0,0
08.08.2020 12:00:00 27,2 12,0 8 4 16 9 ENE 0,0
08.08.2020 11:00:00 24,4 10,6 6 3 13 7 ENE 0,0
08.08.2020 10:00:00 21,1 11,7 2 1 7 4 ESE 0,0
08.08.2020 09:00:00 16,7 12,8 5 3 9 5 WSW 0,0
08.08.2020 08:00:00 12,7 11,4 3 2 10 5 SW -
08.08.2020 07:00:00 10,8 9,7 4 2 5 3 W 0,0
08.08.2020 06:00:00 12,9 11,7 1 1 4 2 S 0,0
08.08.2020 05:00:00 12,6 11,3 3 2 6 3 W 0,0
08.08.2020 04:00:00 13,9 12,7 1 1 5 3 SW 0,0
08.08.2020 03:00:00 14,5 13,1 4 2 6 3 WNW 0,0
08.08.2020 02:00:00 15,0 13,4 3 2 6 3 W -
08.08.2020 01:00:00 16,6 14,6 1 1 13 7 WSW 0,0
08.08.2020 00:00:00 17,6 14,7 5 3 16 9 E 0,0
07.08.2020 23:00:00 17,9 15,5 5 3 9 5 ESE 0,0
07.08.2020 22:00:00 18,9 15,0 1 1 16 9 SE 0,0
07.08.2020 21:00:00 20,3 15,7 7 4 21 11 E 0,0
07.08.2020 20:00:00 22,2 17,1 4 2 31 17 ENE -
07.08.2020 19:00:00 24,5 17,9 12 7 26 14 ENE 0,0
07.08.2020 18:00:00 26,4 18,5 10 6 32 17 ENE 0,0
07.08.2020 17:00:00 27,0 18,3 20 11 30 16 E 0,0
07.08.2020 16:00:00 31,1 17,1 12 6 24 13 ENE 0,0
07.08.2020 15:00:00 32,3 15,3 13 7 24 13 E 0,0
07.08.2020 14:00:00 33,7 11,6 8 4 22 12 SSW -
07.08.2020 13:00:00 32,3 11,4 13 7 25 13 S 0,0
07.08.2020 12:00:00 30,8 11,7 9 5 20 11 SSE 0,0
07.08.2020 11:00:00 28,9 12,7 6 4 14 8 SE 0,0
07.08.2020 10:00:00 25,8 12,6 3 2 8 4 ESE 0,0
07.08.2020 09:00:00 20,0 14,6 1 1 5 3 NNW 0,0
07.08.2020 08:00:00 15,6 12,5 3 2 8 5 NW -
07.08.2020 07:00:00 16,2 12,3 2 1 9 5 W 0,0
07.08.2020 06:00:00 15,2 12,5 6 3 9 5 WNW 0,0
07.08.2020 05:00:00 16,7 13,8 1 1 10 5 SW 0,0
07.08.2020 04:00:00 16,3 12,6 3 1 9 5 W 0,0
07.08.2020 03:00:00 18,7 13,6 3 2 10 5 S 0,0
07.08.2020 02:00:00 19,1 12,6 4 2 11 6 WSW -
07.08.2020 01:00:00 20,4 11,3 9 5 13 7 WSW 0,0
07.08.2020 00:00:00 21,4 9,6 6 3 11 6 WSW 0,0
06.08.2020 23:00:00 22,7 9,4 4 2 17 9 WSW 0,0
06.08.2020 22:00:00 23,1 10,2 9 5 15 8 WNW 0,0
06.08.2020 21:00:00 28,2 10,4 3 1 17 9 S 0,0
06.08.2020 20:00:00 30,4 10,9 6 3 18 10 NE -
06.08.2020 19:00:00 31,8 13,6 5 3 29 15 NNE 0,0
06.08.2020 18:00:00 33,4 7,4 11 6 27 14 WSW 0,0
06.08.2020 17:00:00 34,9 7,8 8 4 29 16 SSW 0,0
06.08.2020 16:00:00 33,9 7,8 9 5 24 13 SSW 0,0
06.08.2020 15:00:00 32,8 8,3 8 4 21 11 S 0,0
06.08.2020 14:00:00 31,4 7,7 13 7 21 11 SSE -
06.08.2020 13:00:00 29,3 7,3 8 4 21 12 SE 0,0
06.08.2020 12:00:00 28,6 7,3 8 4 18 10 SSE 0,0
06.08.2020 11:00:00 23,8 7,4 3 2 8 5 NNE 0,0
06.08.2020 10:00:00 21,0 5,8 2 1 4 2 E 0,0
06.08.2020 09:00:00 15,6 9,4 0 0 4 2 N 0,0
06.08.2020 08:00:00 11,2 7,1 1 0 7 4 NW -
06.08.2020 07:00:00 11,3 6,2 1 1 11 6 NW 0,0
06.08.2020 06:00:00 12,1 7,4 6 4 10 5 WSW 0,0
06.08.2020 05:00:00 11,7 7,0 4 2 9 5 WSW 0,0
06.08.2020 04:00:00 10,4 8,7 0 0 5 3 WNW 0,0
06.08.2020 03:00:00 11,2 8,9 1 0 5 3 W 0,0
06.08.2020 02:00:00 12,5 9,9 4 2 10 5 W -
06.08.2020 01:00:00 13,6 11,4 4 2 8 5 SW 0,0
06.08.2020 00:00:00 14,9 12,4 3 2 6 3 WNW 0,0
05.08.2020 23:00:00 15,1 11,4 4 2 7 4 WNW 0,0
05.08.2020 22:00:00 19,6 12,8 5 3 10 5 SE 0,0
05.08.2020 21:00:00 23,0 10,8 2 1 14 7 E 0,0
05.08.2020 20:00:00 25,0 10,9 8 4 21 11 ENE -
05.08.2020 19:00:00 25,9 11,2 16 8 24 13 ENE 0,0
05.08.2020 18:00:00 27,2 11,7 17 9 29 16 ENE 0,0
05.08.2020 17:00:00 27,9 11,0 16 9 27 15 ENE 0,0
05.08.2020 16:00:00 28,9 10,0 13 7 25 14 ENE 0,0
05.08.2020 15:00:00 28,6 9,8 11 6 22 12 ENE 0,0
05.08.2020 14:00:00 27,9 8,3 4 2 15 8 ENE -
05.08.2020 13:00:00 26,1 10,3 4 2 13 7 ESE 0,0
05.08.2020 12:00:00 23,1 11,2 3 1 8 5 SSE 0,0
05.08.2020 11:00:00 20,7 11,6 1 1 6 4 E 0,0
05.08.2020 10:00:00 16,1 11,9 0 0 0 0 N 0,0
05.08.2020 09:00:00 12,5 10,9 0 0 0 0 N 0,0
05.08.2020 08:00:00 10,1 9,2 0 0 6 3 N -
05.08.2020 07:00:00 8,5 7,6 4 2 10 5 WNW 0,0
05.08.2020 06:00:00 10,8 9,9 5 3 11 6 W 0,0
05.08.2020 05:00:00 10,7 9,8 6 3 10 5 SSW 0,0

tt = Température de l'air
td = dewpoint
ff = Vitesse du vent
fx = gusts
dd = Direction du vent
rr = Quantités de précipitations

stations d'obs. à proximité